Time;durP1;ratioP1;P1;durP2;ratioP2;P2;SDS_P1;SDS_P2;PMS_P1;PMS_P2;Temp;Humidity;BMP_temperature;BMP_pressure;BME280_temperature;BME280_humidity;BME280_pressure;Samples;Min_cycle;Max_cycle;Signal;HPM_P1;HPM_P2
2023/07/26 00:01:01;;;;;;;5.00;3.50;;;;;;;;;;108211;1258;42292;-29
2023/07/26 00:03:38;;;;;;;5.70;4.10;;;;;;;;;;108130;1274;41281;-29
2023/07/26 00:06:12;;;;;;;5.50;3.70;;;;;;;;;;108060;1277;38832;-29
2023/07/26 00:08:46;;;;;;;5.80;3.80;;;;;;;;;;108072;1264;42612;-29
2023/07/26 00:11:20;;;;;;;5.50;3.70;;;;;;;;;;108050;1264;42167;-29
2023/07/26 00:13:55;;;;;;;5.50;3.60;;;;;;;;;;108076;1260;41314;-29
2023/07/26 00:16:30;;;;;;;5.10;3.60;;;;;;;;;;108214;1263;39035;-29
2023/07/26 00:19:05;;;;;;;5.40;3.60;;;;;;;;;;108219;1263;40035;-29
2023/07/26 00:21:40;;;;;;;5.30;3.80;;;;;;;;;;108237;1262;44471;-29
2023/07/26 00:24:14;;;;;;;5.20;3.60;;;;;;;;;;108164;1261;42625;-29
2023/07/26 00:26:48;;;;;;;5.50;3.90;;;;;;;;;;108051;1272;38786;-29
2023/07/26 00:29:22;;;;;;;6.20;3.90;;;;;;;;;;108064;1264;43054;-29
2023/07/26 00:31:57;;;;;;;6.30;4.10;;;;;;;;;;108067;1265;42531;-29
2023/07/26 00:34:31;;;;;;;5.10;3.90;;;;;;;;;;108063;1257;41325;-29
2023/07/26 00:37:08;;;;;;;5.60;3.80;;;;;;;;;;108214;1270;40194;-29
2023/07/26 00:39:42;;;;;;;5.60;3.70;;;;;;;;;;108302;1270;41289;-29
2023/07/26 00:42:18;;;;;;;5.90;3.90;;;;;;;;;;108365;1268;42126;-29
2023/07/26 00:44:53;;;;;;;6.10;3.90;;;;;;;;;;108294;1266;42346;-29
2023/07/26 00:47:29;;;;;;;5.70;3.80;;;;;;;;;;108266;1263;39879;-29
2023/07/26 00:50:06;;;;;;;5.00;3.80;;;;;;;;;;108257;1269;42440;-29
2023/07/26 00:52:42;;;;;;;5.60;3.80;;;;;;;;;;108272;1262;42268;-29
2023/07/26 00:55:17;;;;;;;4.90;3.60;;;;;;;;;;108263;1271;41259;-29
2023/07/26 00:57:52;;;;;;;5.40;3.60;;;;;;;;;;108334;1269;38856;-29
2023/07/26 01:00:26;;;;;;;5.10;3.70;;;;;;;;;;108357;1267;41422;-29
2023/07/26 01:03:00;;;;;;;5.30;3.60;;;;;;;;;;108326;1259;42451;-29
2023/07/26 01:05:44;;;;;;;4.80;3.40;;;;;;;;;;108295;1258;41021;-29
2023/07/26 01:08:28;;;;;;;5.10;3.40;;;;;;;;;;108293;1270;38911;-29
2023/07/26 01:11:09;;;;;;;5.20;3.40;;;;;;;;;;108263;1258;40291;-29
2023/07/26 01:13:50;;;;;;;5.10;3.40;;;;;;;;;;108268;1269;42148;-29
2023/07/26 01:16:24;;;;;;;4.80;3.20;;;;;;;;;;108294;1261;41388;-29
2023/07/26 01:18:58;;;;;;;5.90;3.40;;;;;;;;;;108389;1258;38976;-29
2023/07/26 01:21:36;;;;;;;5.60;3.50;;;;;;;;;;108366;1261;41407;-29
2023/07/26 01:24:11;;;;;;;5.20;3.10;;;;;;;;;;108367;1267;42420;-29
2023/07/26 01:26:45;;;;;;;5.70;3.20;;;;;;;;;;108239;1270;41443;-29
2023/07/26 01:29:21;;;;;;;5.70;3.40;;;;;;;;;;108298;1269;40066;-29
2023/07/26 01:31:57;;;;;;;6.20;3.30;;;;;;;;;;108246;1260;40438;-29
2023/07/26 01:34:32;;;;;;;6.00;3.10;;;;;;;;;;108265;1262;42271;-29
2023/07/26 01:37:08;;;;;;;5.30;3.30;;;;;;;;;;108327;1257;41306;-29
2023/07/26 01:39:43;;;;;;;4.90;3.20;;;;;;;;;;108376;1260;38577;-29
2023/07/26 01:42:18;;;;;;;4.90;3.30;;;;;;;;;;108340;1255;40218;-30
2023/07/26 01:44:52;;;;;;;5.50;3.40;;;;;;;;;;108390;1259;43301;-30
2023/07/26 01:47:26;;;;;;;5.20;3.20;;;;;;;;;;108204;1271;41102;-30
2023/07/26 01:50:00;;;;;;;4.90;3.40;;;;;;;;;;108287;1272;38735;-30
2023/07/26 01:52:34;;;;;;;4.50;3.10;;;;;;;;;;108246;1261;40006;-30
2023/07/26 01:55:11;;;;;;;4.90;3.20;;;;;;;;;;108227;1264;43568;-30
2023/07/26 01:57:45;;;;;;;4.40;2.90;;;;;;;;;;108341;1260;48404;-30
2023/07/26 02:00:20;;;;;;;4.70;3.10;;;;;;;;;;108225;1272;39037;-30
2023/07/26 02:02:54;;;;;;;5.20;3.20;;;;;;;;;;108255;1260;41569;-30
2023/07/26 02:05:29;;;;;;;5.00;3.20;;;;;;;;;;108190;1261;42296;-30
2023/07/26 02:08:06;;;;;;;4.90;3.20;;;;;;;;;;108327;1257;47897;-30
2023/07/26 02:10:41;;;;;;;4.40;3.00;;;;;;;;;;108341;1256;39001;-30
2023/07/26 02:13:15;;;;;;;5.20;3.40;;;;;;;;;;108247;1267;175475;-30
2023/07/26 02:15:51;;;;;;;5.10;3.40;;;;;;;;;;108366;1267;42314;-30
2023/07/26 02:18:27;;;;;;;4.90;3.20;;;;;;;;;;108327;1260;47248;-30
2023/07/26 02:21:01;;;;;;;5.30;3.20;;;;;;;;;;108349;1261;40094;-30
2023/07/26 02:23:36;;;;;;;5.10;3.80;;;;;;;;;;108347;1270;40817;-30
2023/07/26 02:26:10;;;;;;;5.30;3.30;;;;;;;;;;108258;1259;177303;-30
2023/07/26 02:28:44;;;;;;;4.80;3.20;;;;;;;;;;108178;1267;49200;-30
2023/07/26 02:31:20;;;;;;;4.80;3.20;;;;;;;;;;108220;1272;40138;-30
2023/07/26 02:33:54;;;;;;;5.50;3.40;;;;;;;;;;108222;1267;40427;-30
2023/07/26 02:36:28;;;;;;;5.50;3.60;;;;;;;;;;108200;1270;42149;-30
2023/07/26 02:39:03;;;;;;;5.30;3.80;;;;;;;;;;108490;1261;46564;-30
2023/07/26 02:41:40;;;;;;;5.00;3.40;;;;;;;;;;108409;1258;40057;-30
2023/07/26 02:44:14;;;;;;;5.20;3.50;;;;;;;;;;108376;1267;40137;-30
2023/07/26 02:46:48;;;;;;;5.50;3.70;;;;;;;;;;108367;1261;42051;-30
2023/07/26 02:49:22;;;;;;;5.50;3.90;;;;;;;;;;108211;1260;46830;-30
2023/07/26 02:51:58;;;;;;;4.80;3.40;;;;;;;;;;108215;1270;38847;-30
2023/07/26 02:54:33;;;;;;;5.70;4.00;;;;;;;;;;108126;1271;175472;-30
2023/07/26 02:57:08;;;;;;;5.10;3.70;;;;;;;;;;108252;1256;42173;-30
2023/07/26 02:59:43;;;;;;;5.10;3.60;;;;;;;;;;108511;1260;47942;-30
2023/07/26 03:02:17;;;;;;;5.40;3.50;;;;;;;;;;108408;1270;38829;-30
2023/07/26 03:04:54;;;;;;;5.10;3.70;;;;;;;;;;108382;1270;40234;-30
2023/07/26 03:07:28;;;;;;;5.10;3.50;;;;;;;;;;108353;1264;42267;-30
2023/07/26 03:10:03;;;;;;;5.80;3.50;;;;;;;;;;108068;1261;175520;-30
2023/07/26 03:12:39;;;;;;;6.00;3.80;;;;;;;;;;108226;1257;39055;-30
2023/07/26 03:15:14;;;;;;;5.50;3.80;;;;;;;;;;108232;1260;40317;-30
2023/07/26 03:17:48;;;;;;;5.90;3.90;;;;;;;;;;108235;1258;42111;-30
2023/07/26 03:20:22;;;;;;;5.60;3.90;;;;;;;;;;108210;1261;48142;-30
2023/07/26 03:22:57;;;;;;;5.70;3.90;;;;;;;;;;108223;1270;40159;-30
2023/07/26 03:25:31;;;;;;;6.20;3.80;;;;;;;;;;108247;1258;40189;-30
2023/07/26 03:28:06;;;;;;;5.40;3.80;;;;;;;;;;108222;1272;42025;-30
2023/07/26 03:30:39;;;;;;;4.90;3.70;;;;;;;;;;107662;1256;890763;-30
2023/07/26 03:33:13;;;;;;;5.90;3.80;;;;;;;;;;108367;1270;40051;-30
2023/07/26 03:35:47;;;;;;;7.30;4.00;;;;;;;;;;108390;1264;41612;-30
2023/07/26 03:38:21;;;;;;;5.60;3.60;;;;;;;;;;108388;1262;43239;-30
2023/07/26 03:40:57;;;;;;;5.30;3.90;;;;;;;;;;108178;1260;47365;-30
2023/07/26 03:43:31;;;;;;;5.60;3.80;;;;;;;;;;108241;1258;39012;-30
2023/07/26 03:46:05;;;;;;;5.50;4.00;;;;;;;;;;108217;1268;40338;-30
2023/07/26 03:48:41;;;;;;;5.60;3.90;;;;;;;;;;108252;1260;42210;-30
2023/07/26 03:51:15;;;;;;;5.60;3.90;;;;;;;;;;108347;1266;46983;-30
2023/07/26 03:53:49;;;;;;;5.80;3.90;;;;;;;;;;108499;1254;39232;-30
2023/07/26 03:56:24;;;;;;;5.40;3.60;;;;;;;;;;108401;1267;40359;-30
2023/07/26 03:58:58;;;;;;;5.60;3.90;;;;;;;;;;108366;1273;42684;-30
2023/07/26 04:01:33;;;;;;;4.80;3.60;;;;;;;;;;108167;1260;47222;-30
2023/07/26 04:04:08;;;;;;;4.90;3.50;;;;;;;;;;108209;1260;39276;-30
2023/07/26 04:06:42;;;;;;;5.70;3.70;;;;;;;;;;108212;1268;40263;-30
2023/07/26 04:09:19;;;;;;;5.20;3.80;;;;;;;;;;108267;1258;41999;-30
2023/07/26 04:11:58;;;;;;;5.30;3.80;;;;;;;;;;108493;1260;48176;-30
2023/07/26 04:14:32;;;;;;;5.20;3.90;;;;;;;;;;108389;1258;38936;-30
2023/07/26 04:17:07;;;;;;;5.10;3.70;;;;;;;;;;108393;1257;41475;-30
2023/07/26 04:19:41;;;;;;;6.70;3.80;;;;;;;;;;108372;1257;42073;-30
2023/07/26 04:22:16;;;;;;;5.70;3.80;;;;;;;;;;108226;1261;41274;-30
2023/07/26 04:24:50;;;;;;;5.10;3.60;;;;;;;;;;108248;1270;38838;-30
2023/07/26 04:27:25;;;;;;;5.10;3.80;;;;;;;;;;108239;1260;40314;-30
2023/07/26 04:30:02;;;;;;;5.50;3.70;;;;;;;;;;108217;1269;42246;-30
2023/07/26 04:32:37;;;;;;;5.40;3.50;;;;;;;;;;108373;1257;47659;-30
2023/07/26 04:35:13;;;;;;;5.40;3.40;;;;;;;;;;108381;1256;38831;-30
2023/07/26 04:37:49;;;;;;;5.00;3.30;;;;;;;;;;108290;1260;175453;-30
2023/07/26 04:40:24;;;;;;;4.70;3.60;;;;;;;;;;108320;1257;42064;-30
2023/07/26 04:42:58;;;;;;;5.50;3.70;;;;;;;;;;108258;1258;49714;-30
2023/07/26 04:45:35;;;;;;;4.60;3.20;;;;;;;;;;108218;1268;39905;-30
2023/07/26 04:48:09;;;;;;;4.90;3.20;;;;;;;;;;108186;1257;40394;-30
2023/07/26 04:50:44;;;;;;;5.40;3.40;;;;;;;;;;108181;1270;42301;-30
2023/07/26 04:53:19;;;;;;;5.40;3.50;;;;;;;;;;108403;1257;50421;-30
2023/07/26 04:55:56;;;;;;;5.10;3.50;;;;;;;;;;108377;1260;40234;-30
2023/07/26 04:58:30;;;;;;;4.40;3.20;;;;;;;;;;108394;1261;40155;-30
2023/07/26 05:01:04;;;;;;;5.00;3.20;;;;;;;;;;108330;1259;42126;-30
2023/07/26 05:03:39;;;;;;;4.80;3.30;;;;;;;;;;108090;1260;175453;-30
2023/07/26 05:06:14;;;;;;;4.70;3.20;;;;;;;;;;108231;1258;39003;-30
2023/07/26 05:08:49;;;;;;;4.80;3.20;;;;;;;;;;108095;1259;175482;-30
2023/07/26 05:11:23;;;;;;;5.50;3.30;;;;;;;;;;108172;1267;43343;-30
2023/07/26 05:13:58;;;;;;;4.70;3.10;;;;;;;;;;108401;1267;48362;-30
2023/07/26 05:16:31;;;;;;;4.80;3.10;;;;;;;;;;108405;1260;38931;-30
2023/07/26 05:19:06;;;;;;;5.40;3.20;;;;;;;;;;108394;1269;41148;-30
2023/07/26 05:21:42;;;;;;;4.60;3.00;;;;;;;;;;108404;1259;43445;-30
2023/07/26 05:24:16;;;;;;;5.60;3.10;;;;;;;;;;108205;1272;47898;-30
2023/07/26 05:26:49;;;;;;;4.90;2.90;;;;;;;;;;108246;1257;40172;-30
2023/07/26 05:29:24;;;;;;;4.50;2.60;;;;;;;;;;108228;1272;40003;-30
2023/07/26 05:31:57;;;;;;;5.00;3.10;;;;;;;;;;108213;1272;43421;-30
2023/07/26 05:34:31;;;;;;;5.10;2.70;;;;;;;;;;108410;1266;48746;-30
2023/07/26 05:37:05;;;;;;;5.30;2.60;;;;;;;;;;108402;1257;40215;-30
2023/07/26 05:39:39;;;;;;;5.30;2.80;;;;;;;;;;108403;1257;41318;-30
2023/07/26 05:42:13;;;;;;;5.10;2.70;;;;;;;;;;108365;1267;42482;-30
2023/07/26 05:44:47;;;;;;;4.70;2.50;;;;;;;;;;108219;1272;49608;-30
2023/07/26 05:47:20;;;;;;;4.70;2.50;;;;;;;;;;108202;1272;38921;-30
2023/07/26 05:49:54;;;;;;;4.40;2.50;;;;;;;;;;108191;1256;40028;-30
2023/07/26 05:52:28;;;;;;;4.90;2.40;;;;;;;;;;108213;1258;44609;-30
2023/07/26 05:55:02;;;;;;;4.90;2.40;;;;;;;;;;108373;1268;47735;-30
2023/07/26 05:57:37;;;;;;;4.10;2.30;;;;;;;;;;108394;1267;38829;-30
2023/07/26 06:00:14;;;;;;;4.90;2.60;;;;;;;;;;108421;1257;41392;-30
2023/07/26 06:02:48;;;;;;;4.30;2.30;;;;;;;;;;108376;1262;43402;-31
2023/07/26 06:05:22;;;;;;;4.30;2.10;;;;;;;;;;108199;1260;47027;-30
2023/07/26 06:07:56;;;;;;;4.70;2.50;;;;;;;;;;108296;1260;39838;-30
2023/07/26 06:10:30;;;;;;;3.80;2.00;;;;;;;;;;108250;1270;40236;-30
2023/07/26 06:13:04;;;;;;;4.40;2.10;;;;;;;;;;108215;1263;42210;-30
2023/07/26 06:15:41;;;;;;;4.10;2.00;;;;;;;;;;108424;1259;47330;-30
2023/07/26 06:18:15;;;;;;;4.00;2.10;;;;;;;;;;108434;1267;39021;-30
2023/07/26 06:20:48;;;;;;;4.40;2.10;;;;;;;;;;108395;1267;40396;-30
2023/07/26 06:23:22;;;;;;;3.90;1.90;;;;;;;;;;108379;1256;43388;-30
2023/07/26 06:25:56;;;;;;;3.70;1.90;;;;;;;;;;108232;1258;47073;-30
2023/07/26 06:28:30;;;;;;;3.90;1.90;;;;;;;;;;108221;1268;39063;-30
2023/07/26 06:31:05;;;;;;;4.00;1.90;;;;;;;;;;108234;1257;40389;-30
2023/07/26 06:33:39;;;;;;;5.00;2.20;;;;;;;;;;108184;1262;44040;-30
2023/07/26 06:36:13;;;;;;;4.30;1.90;;;;;;;;;;108420;1265;47340;-30
2023/07/26 06:38:46;;;;;;;3.50;1.80;;;;;;;;;;108397;1257;38931;-30
2023/07/26 06:41:20;;;;;;;4.10;1.90;;;;;;;;;;108408;1272;40068;-30
2023/07/26 06:43:54;;;;;;;3.90;1.90;;;;;;;;;;108368;1257;44685;-30
2023/07/26 06:46:28;;;;;;;3.60;1.60;;;;;;;;;;108214;1264;48386;-30
2023/07/26 06:49:02;;;;;;;3.80;1.70;;;;;;;;;;108225;1268;39224;-30
2023/07/26 06:51:36;;;;;;;3.80;1.60;;;;;;;;;;108095;1264;40465;-30
2023/07/26 06:54:10;;;;;;;4.30;1.70;;;;;;;;;;108200;1256;42060;-30
2023/07/26 06:56:44;;;;;;;3.90;1.70;;;;;;;;;;108440;1256;47958;-30
2023/07/26 06:59:18;;;;;;;3.80;1.80;;;;;;;;;;108433;1271;38711;-30
2023/07/26 07:01:51;;;;;;;4.00;1.80;;;;;;;;;;108396;1257;40490;-29
2023/07/26 07:04:26;;;;;;;5.60;1.70;;;;;;;;;;108369;1257;44494;-29
2023/07/26 07:07:00;;;;;;;4.00;1.60;;;;;;;;;;108221;1260;47048;-29
2023/07/26 07:09:34;;;;;;;3.50;1.50;;;;;;;;;;108254;1257;38957;-29
2023/07/26 07:12:11;;;;;;;3.80;1.40;;;;;;;;;;108206;1261;43249;-29
2023/07/26 07:14:45;;;;;;;4.10;1.40;;;;;;;;;;108235;1259;42055;-29
2023/07/26 07:17:19;;;;;;;4.00;1.60;;;;;;;;;;108405;1256;47869;-29
2023/07/26 07:19:53;;;;;;;3.90;1.60;;;;;;;;;;108430;1257;40165;-29
2023/07/26 07:22:27;;;;;;;4.60;1.60;;;;;;;;;;108303;1260;40323;-29
2023/07/26 07:25:01;;;;;;;4.10;1.60;;;;;;;;;;108151;1256;42604;-31
2023/07/26 07:27:34;;;;;;;4.60;1.50;;;;;;;;;;108211;1269;48804;-31
2023/07/26 07:30:11;;;;;;;4.10;1.60;;;;;;;;;;108292;1269;38970;-31
2023/07/26 07:32:44;;;;;;;5.00;1.60;;;;;;;;;;108342;1260;42564;-30
2023/07/26 07:35:21;;;;;;;5.70;1.80;;;;;;;;;;108264;1257;42360;-30
2023/07/26 07:37:55;;;;;;;4.00;1.60;;;;;;;;;;108183;1270;48236;-30
2023/07/26 07:40:29;;;;;;;4.50;2.00;;;;;;;;;;108203;1256;38887;-30
2023/07/26 07:43:03;;;;;;;4.20;1.50;;;;;;;;;;108197;1269;40439;-30
2023/07/26 07:45:42;;;;;;;5.60;1.80;;;;;;;;;;108166;1257;42234;-30
2023/07/26 07:48:16;;;;;;;4.80;2.00;;;;;;;;;;108329;1256;48521;-30
2023/07/26 07:50:57;;;;;;;4.80;1.80;;;;;;;;;;108299;1257;38935;-30
2023/07/26 07:53:31;;;;;;;4.30;1.60;;;;;;;;;;108290;1264;41436;-30
2023/07/26 07:56:05;;;;;;;4.60;2.00;;;;;;;;;;108262;1257;43205;-30
2023/07/26 07:58:39;;;;;;;6.20;1.90;;;;;;;;;;107569;1257;892505;-30
2023/07/26 08:01:13;;;;;;;5.70;1.80;;;;;;;;;;108187;1270;39208;-30
2023/07/26 08:03:47;;;;;;;6.60;2.20;;;;;;;;;;108200;1256;40464;-30
2023/07/26 08:06:21;;;;;;;7.10;1.90;;;;;;;;;;108177;1256;42623;-30
2023/07/26 08:08:56;;;;;;;5.10;1.90;;;;;;;;;;108289;1269;41288;-30
2023/07/26 08:11:30;;;;;;;4.90;2.00;;;;;;;;;;108302;1260;38969;-30
2023/07/26 08:14:05;;;;;;;4.50;1.70;;;;;;;;;;108287;1257;41315;-30
2023/07/26 08:16:39;;;;;;;4.60;1.70;;;;;;;;;;108261;1257;42434;-30
2023/07/26 08:19:13;;;;;;;5.80;2.00;;;;;;;;;;108223;1261;41321;-29
2023/07/26 08:21:47;;;;;;;5.10;2.00;;;;;;;;;;108264;1263;40292;-30
2023/07/26 08:24:22;;;;;;;5.30;1.70;;;;;;;;;;108247;1256;40324;-30
2023/07/26 08:26:57;;;;;;;5.30;1.70;;;;;;;;;;108002;1257;175462;-32
2023/07/26 08:29:31;;;;;;;4.50;1.80;;;;;;;;;;108299;1257;41140;-32
2023/07/26 08:32:08;;;;;;;4.50;1.70;;;;;;;;;;108285;1269;38881;-32
2023/07/26 08:34:41;;;;;;;4.60;1.60;;;;;;;;;;108313;1256;40263;-32
2023/07/26 08:37:18;;;;;;;4.70;1.90;;;;;;;;;;108268;1256;43208;-31
2023/07/26 08:39:54;;;;;;;4.30;1.60;;;;;;;;;;108194;1270;42306;-30
2023/07/26 08:42:28;;;;;;;5.60;2.10;;;;;;;;;;108216;1270;38826;-30
2023/07/26 08:45:04;;;;;;;4.50;1.80;;;;;;;;;;108210;1264;40244;-30
2023/07/26 08:47:39;;;;;;;4.60;1.80;;;;;;;;;;108241;1265;42619;-30
2023/07/26 08:50:14;;;;;;;4.90;1.80;;;;;;;;;;108355;1257;42615;-30
2023/07/26 08:52:48;;;;;;;5.10;1.80;;;;;;;;;;108400;1267;39265;-30
2023/07/26 08:55:22;;;;;;;4.30;1.90;;;;;;;;;;108425;1257;41438;-30
2023/07/26 08:57:56;;;;;;;5.40;1.80;;;;;;;;;;108353;1257;42357;-30
2023/07/26 09:00:31;;;;;;;4.30;1.70;;;;;;;;;;108240;1256;41203;-30
2023/07/26 09:03:10;;;;;;;3.70;1.70;;;;;;;;;;108238;1272;40009;-30
2023/07/26 09:05:45;;;;;;;5.40;2.10;;;;;;;;;;108205;1262;40215;-30
2023/07/26 09:08:19;;;;;;;5.10;1.90;;;;;;;;;;108239;1259;43382;-30
2023/07/26 09:10:53;;;;;;;5.30;2.10;;;;;;;;;;108432;1257;42856;-30
2023/07/26 09:13:27;;;;;;;4.30;1.80;;;;;;;;;;108277;1257;175488;-30
2023/07/26 09:16:02;;;;;;;4.20;1.70;;;;;;;;;;108385;1257;40360;-29
2023/07/26 09:18:36;;;;;;;4.90;1.80;;;;;;;;;;108279;1260;42073;-29
2023/07/26 09:21:13;;;;;;;4.40;1.90;;;;;;;;;;108233;1270;42571;-30
2023/07/26 09:23:49;;;;;;;6.20;1.90;;;;;;;;;;108213;1261;38744;-30
2023/07/26 09:26:39;;;;;;;3.60;1.70;;;;;;;;;;108217;1270;42943;-30
2023/07/26 09:29:15;;;;;;;5.00;1.90;;;;;;;;;;108294;1257;43530;-30
2023/07/26 09:31:49;;;;;;;4.50;1.70;;;;;;;;;;108367;1267;42319;-30
2023/07/26 09:34:26;;;;;;;4.70;1.80;;;;;;;;;;108257;1256;40223;-30
2023/07/26 09:37:00;;;;;;;4.30;1.50;;;;;;;;;;108216;1269;41274;-31
2023/07/26 09:39:34;;;;;;;3.90;1.60;;;;;;;;;;108241;1256;43283;-31
2023/07/26 09:42:10;;;;;;;4.70;1.50;;;;;;;;;;107616;1269;891621;-30
2023/07/26 09:44:48;;;;;;;3.70;1.60;;;;;;;;;;108317;1266;40479;-30
2023/07/26 09:47:37;;;;;;;4.70;1.50;;;;;;;;;;108294;1270;41551;-30
2023/07/26 09:50:29;;;;;;;3.40;1.50;;;;;;;;;;108173;1260;42335;-31
2023/07/26 09:53:07;;;;;;;3.50;1.30;;;;;;;;;;107556;1262;890861;-31
2023/07/26 09:55:42;;;;;;;3.40;1.40;;;;;;;;;;108216;1260;39246;-31
2023/07/26 09:58:37;;;;;;;3.30;1.30;;;;;;;;;;108219;1257;40157;-31
2023/07/26 10:01:13;;;;;;;3.20;1.30;;;;;;;;;;108223;1257;42485;-31
2023/07/26 10:03:52;;;;;;;3.30;1.30;;;;;;;;;;108233;1258;42807;-31
2023/07/26 10:06:28;;;;;;;4.30;1.50;;;;;;;;;;108222;1268;39076;-31
2023/07/26 10:09:04;;;;;;;3.80;1.20;;;;;;;;;;108189;1257;40738;-31
2023/07/26 10:11:39;;;;;;;3.30;1.30;;;;;;;;;;108267;1272;44066;-31
2023/07/26 10:14:16;;;;;;;3.50;1.30;;;;;;;;;;108251;1269;41168;-30
2023/07/26 10:16:53;;;;;;;3.00;1.20;;;;;;;;;;108269;1269;38896;-31
2023/07/26 10:19:29;;;;;;;3.40;1.30;;;;;;;;;;108243;1257;40245;-31
2023/07/26 10:22:04;;;;;;;3.20;1.20;;;;;;;;;;108212;1259;43531;-31
2023/07/26 10:24:43;;;;;;;3.80;1.30;;;;;;;;;;108269;1264;41319;-31
2023/07/26 10:27:19;;;;;;;3.30;1.20;;;;;;;;;;108081;1272;193232;-31
2023/07/26 10:29:54;;;;;;;3.70;1.20;;;;;;;;;;108185;1268;40762;-31
2023/07/26 10:32:29;;;;;;;3.10;1.10;;;;;;;;;;108266;1258;44472;-31
2023/07/26 10:35:07;;;;;;;3.00;1.20;;;;;;;;;;108249;1258;41375;-31
2023/07/26 10:37:42;;;;;;;3.50;1.10;;;;;;;;;;108263;1269;39155;-31
2023/07/26 10:40:36;;;;;;;3.40;1.20;;;;;;;;;;108231;1260;40240;-31
2023/07/26 10:43:42;;;;;;;2.80;1.20;;;;;;;;;;108231;1256;42051;-31
2023/07/26 10:46:19;;;;;;;3.50;1.20;;;;;;;;;;108231;1257;41151;-31
2023/07/26 10:48:55;;;;;;;3.30;1.30;;;;;;;;;;108205;1260;39161;-31
2023/07/26 10:51:33;;;;;;;2.70;1.10;;;;;;;;;;108150;1261;40211;-31
2023/07/26 10:54:08;;;;;;;4.00;1.30;;;;;;;;;;108296;1256;42402;-31
2023/07/26 10:56:43;;;;;;;3.80;1.20;;;;;;;;;;108214;1262;41337;-31
2023/07/26 10:59:29;;;;;;;3.80;1.40;;;;;;;;;;108243;1272;39130;-31
2023/07/26 11:02:08;;;;;;;3.60;1.10;;;;;;;;;;108185;1260;45725;-31
2023/07/26 11:04:48;;;;;;;3.40;1.20;;;;;;;;;;108254;1271;43678;-31
2023/07/26 11:07:23;;;;;;;3.20;1.10;;;;;;;;;;108249;1266;41361;-31
2023/07/26 11:10:21;;;;;;;3.90;1.20;;;;;;;;;;108196;1266;38980;-31
2023/07/26 11:13:08;;;;;;;3.80;1.30;;;;;;;;;;108237;1261;45402;-31
2023/07/26 11:15:44;;;;;;;3.50;1.40;;;;;;;;;;108279;1256;44782;-31
2023/07/26 11:18:44;;;;;;;3.50;1.30;;;;;;;;;;108246;1269;41238;-31
2023/07/26 11:21:20;;;;;;;3.20;1.20;;;;;;;;;;108199;1256;38860;-31
2023/07/26 11:23:55;;;;;;;3.20;1.10;;;;;;;;;;108253;1269;40693;-31
2023/07/26 11:26:29;;;;;;;3.80;1.50;;;;;;;;;;108293;1257;42880;-31
2023/07/26 11:29:04;;;;;;;3.20;1.30;;;;;;;;;;108295;1257;41230;-31
2023/07/26 11:31:39;;;;;;;3.10;1.30;;;;;;;;;;108240;1261;38943;-31
2023/07/26 11:34:20;;;;;;;3.30;1.30;;;;;;;;;;108229;1256;40123;-31
2023/07/26 11:36:54;;;;;;;3.20;1.20;;;;;;;;;;107591;1256;890240;-31
2023/07/26 11:39:29;;;;;;;3.50;1.20;;;;;;;;;;108257;1265;41216;-31
2023/07/26 11:42:04;;;;;;;3.50;1.40;;;;;;;;;;108220;1260;39104;-31
2023/07/26 11:44:38;;;;;;;3.40;1.40;;;;;;;;;;108320;1268;40236;-31
2023/07/26 11:47:15;;;;;;;4.70;1.40;;;;;;;;;;108252;1260;42442;-31
2023/07/26 11:49:49;;;;;;;6.90;2.00;;;;;;;;;;108188;1262;128977;-31
2023/07/26 11:52:24;;;;;;;7.60;1.70;;;;;;;;;;108192;1265;38993;-31
2023/07/26 11:55:01;;;;;;;6.80;2.00;;;;;;;;;;108187;1258;42354;-30
2023/07/26 11:57:35;;;;;;;5.60;1.90;;;;;;;;;;108240;1265;42095;-31
2023/07/26 12:00:12;;;;;;;6.40;1.90;;;;;;;;;;108256;1259;40992;-31
2023/07/26 12:02:46;;;;;;;5.30;1.70;;;;;;;;;;108126;1260;175472;-30
2023/07/26 12:05:26;;;;;;;5.40;1.60;;;;;;;;;;108282;1260;41520;-30
2023/07/26 12:08:01;;;;;;;5.20;1.50;;;;;;;;;;108191;1265;42254;-30
2023/07/26 12:10:37;;;;;;;4.70;1.80;;;;;;;;;;108181;1259;41150;-31
2023/07/26 12:13:21;;;;;;;4.80;1.50;;;;;;;;;;108142;1261;38898;-30
2023/07/26 12:15:59;;;;;;;6.10;1.80;;;;;;;;;;108243;1257;41372;-30
2023/07/26 12:18:33;;;;;;;5.70;1.90;;;;;;;;;;108277;1256;42281;-30
2023/07/26 12:21:09;;;;;;;6.40;2.10;;;;;;;;;;108244;1266;43701;-31
2023/07/26 12:23:55;;;;;;;5.80;1.90;;;;;;;;;;108245;1262;38909;-31
2023/07/26 12:26:35;;;;;;;6.20;1.80;;;;;;;;;;108273;1260;41719;-31
2023/07/26 12:29:10;;;;;;;4.90;1.70;;;;;;;;;;108271;1272;42222;-31
2023/07/26 12:31:44;;;;;;;6.30;1.80;;;;;;;;;;108226;1265;42591;-30
2023/07/26 12:34:18;;;;;;;4.30;1.70;;;;;;;;;;108252;1256;38875;-29
2023/07/26 12:36:56;;;;;;;5.50;1.80;;;;;;;;;;108169;1256;175341;-31
2023/07/26 12:39:30;;;;;;;4.90;1.70;;;;;;;;;;108316;1263;42267;-30
2023/07/26 12:42:05;;;;;;;4.00;1.70;;;;;;;;;;108300;1266;42427;-30
2023/07/26 12:44:39;;;;;;;4.50;1.70;;;;;;;;;;108341;1261;45462;-30
2023/07/26 12:47:14;;;;;;;5.70;1.60;;;;;;;;;;108289;1269;40281;-33
2023/07/26 12:50:03;;;;;;;5.20;2.00;;;;;;;;;;108284;1257;42657;-33
2023/07/26 12:52:40;;;;;;;6.00;2.10;;;;;;;;;;108245;1257;41310;-33
2023/07/26 12:55:14;;;;;;;4.40;1.70;;;;;;;;;;108281;1260;46123;-33
2023/07/26 12:57:48;;;;;;;4.20;1.70;;;;;;;;;;108092;1263;40453;-33
2023/07/26 13:00:23;;;;;;;5.40;1.80;;;;;;;;;;108102;1257;43317;-33
2023/07/26 13:02:57;;;;;;;5.40;1.90;;;;;;;;;;108077;1269;42478;-32
2023/07/26 13:05:32;;;;;;;5.10;1.90;;;;;;;;;;108246;1257;45077;-32
2023/07/26 13:08:06;;;;;;;3.50;1.60;;;;;;;;;;108269;1269;41949;-33
2023/07/26 13:10:40;;;;;;;4.20;1.60;;;;;;;;;;108303;1269;42268;-31
2023/07/26 13:13:14;;;;;;;4.80;1.80;;;;;;;;;;108239;1272;41359;-30
2023/07/26 13:15:48;;;;;;;5.80;1.80;;;;;;;;;;108207;1260;46306;-31
2023/07/26 13:18:22;;;;;;;4.40;1.60;;;;;;;;;;108296;1271;40182;-32
2023/07/26 13:20:56;;;;;;;3.80;1.60;;;;;;;;;;108251;1261;42142;-30
2023/07/26 13:23:30;;;;;;;3.80;1.80;;;;;;;;;;108219;1270;41193;-30
2023/07/26 13:26:03;;;;;;;4.60;2.00;;;;;;;;;;108232;1272;47378;-30
2023/07/26 13:28:37;;;;;;;4.40;1.80;;;;;;;;;;108266;1272;41685;-30
2023/07/26 13:31:11;;;;;;;4.20;1.90;;;;;;;;;;108307;1261;43981;-29
2023/07/26 13:33:45;;;;;;;3.50;1.60;;;;;;;;;;108042;1272;175459;-30
2023/07/26 13:36:25;;;;;;;3.80;1.50;;;;;;;;;;108069;1265;46350;-30
2023/07/26 13:38:58;;;;;;;4.10;1.60;;;;;;;;;;108089;1258;40446;-30
2023/07/26 13:41:32;;;;;;;4.80;1.70;;;;;;;;;;108100;1271;43340;-30
2023/07/26 13:44:08;;;;;;;4.50;1.80;;;;;;;;;;108068;1259;42633;-31
2023/07/26 13:46:42;;;;;;;4.50;1.90;;;;;;;;;;108188;1259;46242;-31
2023/07/26 13:49:16;;;;;;;4.40;1.80;;;;;;;;;;108241;1257;40214;-31
2023/07/26 13:51:53;;;;;;;4.10;1.80;;;;;;;;;;108274;1272;42499;-31
2023/07/26 13:54:26;;;;;;;3.70;1.80;;;;;;;;;;108236;1262;41512;-31
2023/07/26 13:57:00;;;;;;;3.70;1.70;;;;;;;;;;108061;1266;46005;-31
2023/07/26 13:59:33;;;;;;;4.10;1.70;;;;;;;;;;108110;1269;40409;-31
2023/07/26 14:02:08;;;;;;;3.70;1.80;;;;;;;;;;108083;1261;43198;-31
2023/07/26 14:04:42;;;;;;;4.10;1.90;;;;;;;;;;108163;1261;41360;-31
2023/07/26 14:07:15;;;;;;;4.00;1.90;;;;;;;;;;108271;1262;46237;-31
2023/07/26 14:09:52;;;;;;;3.70;1.80;;;;;;;;;;108268;1263;40644;-31
2023/07/26 14:12:25;;;;;;;5.30;2.10;;;;;;;;;;108272;1269;42503;-31
2023/07/26 14:14:59;;;;;;;4.30;1.90;;;;;;;;;;108234;1266;42525;-31
2023/07/26 14:17:34;;;;;;;3.90;1.60;;;;;;;;;;108243;1272;44717;-31
2023/07/26 14:20:10;;;;;;;4.30;2.00;;;;;;;;;;108289;1264;41721;-31
2023/07/26 14:22:44;;;;;;;3.60;1.90;;;;;;;;;;108279;1256;42643;-31
2023/07/26 14:25:19;;;;;;;4.10;1.90;;;;;;;;;;108146;1257;177303;-31
2023/07/26 14:27:52;;;;;;;4.60;1.90;;;;;;;;;;108287;1272;44152;-31
2023/07/26 14:30:27;;;;;;;4.40;2.20;;;;;;;;;;108281;1257;40200;-31
2023/07/26 14:33:01;;;;;;;4.10;1.80;;;;;;;;;;108278;1269;42081;-31
2023/07/26 14:35:34;;;;;;;4.10;1.70;;;;;;;;;;108244;1268;41499;-31
2023/07/26 14:38:08;;;;;;;4.30;1.90;;;;;;;;;;108299;1271;46398;-31
2023/07/26 14:40:42;;;;;;;4.70;2.00;;;;;;;;;;108277;1256;41460;-31
2023/07/26 14:43:16;;;;;;;3.80;1.60;;;;;;;;;;108311;1271;43965;-31
2023/07/26 14:45:52;;;;;;;4.20;1.80;;;;;;;;;;108285;1265;42367;-31
2023/07/26 14:48:26;;;;;;;4.50;1.90;;;;;;;;;;108241;1269;45022;-31
2023/07/26 14:51:01;;;;;;;4.00;2.00;;;;;;;;;;108281;1272;41471;-31
2023/07/26 14:53:35;;;;;;;4.50;1.90;;;;;;;;;;108287;1263;42280;-31
2023/07/26 14:56:11;;;;;;;5.20;2.00;;;;;;;;;;108170;1259;41522;-31
2023/07/26 14:58:44;;;;;;;4.10;1.90;;;;;;;;;;108112;1257;44382;-31
2023/07/26 15:01:18;;;;;;;5.20;2.00;;;;;;;;;;108105;1271;40412;-31
2023/07/26 15:03:52;;;;;;;4.20;1.90;;;;;;;;;;108098;1256;42341;-31
2023/07/26 15:06:27;;;;;;;4.50;1.90;;;;;;;;;;108231;1271;41497;-31
2023/07/26 15:09:00;;;;;;;4.30;1.90;;;;;;;;;;108296;1257;45292;-31
2023/07/26 15:11:34;;;;;;;4.70;2.40;;;;;;;;;;108183;1272;175531;-31
2023/07/26 15:14:08;;;;;;;4.50;2.00;;;;;;;;;;108309;1257;42357;-31
2023/07/26 15:16:42;;;;;;;5.40;2.10;;;;;;;;;;108244;1272;42606;-31